Time;durP1;ratioP1;P1;durP2;ratioP2;P2;SDS_P1;SDS_P2;PMS_P1;PMS_P2;Temp;Humidity;BMP_temperature;BMP_pressure;BME280_temperature;BME280_humidity;BME280_pressure;Samples;Min_cycle;Max_cycle;Signal;HPM_P1;HPM_P2
2023/08/22 00:04:10;;;;;;;18.92;13.77;;;;;;;-145.68;100.00;73373.88;10494348;28;20191;-75
2023/08/22 00:09:11;;;;;;;19.58;14.23;;;;;;;-145.68;100.00;73383.88;10493874;28;20183;-75
2023/08/22 00:14:12;;;;;;;21.55;13.43;;;;;;;-145.68;100.00;73373.88;10493903;28;20187;-74
2023/08/22 00:19:12;;;;;;;16.65;13.38;;;;;;;-145.68;100.00;73371.88;10493746;28;20227;-75
2023/08/22 00:24:12;;;;;;;15.63;13.13;;;;;;;-145.68;100.00;73385.88;10493589;28;20264;-74
2023/08/22 00:29:13;;;;;;;16.30;12.82;;;;;;;-145.68;100.00;73391.84;10493174;28;20184;-75
2023/08/22 00:34:13;;;;;;;17.75;12.07;;;;;;;-145.68;100.00;73379.88;10493172;28;20219;-74
2023/08/22 00:39:14;;;;;;;20.15;13.02;;;;;;;-145.68;100.00;73391.84;10492858;28;20624;-76
2023/08/22 00:44:14;;;;;;;14.90;12.13;;;;;;;-145.68;100.00;73391.84;10474909;28;20198;-75
2023/08/22 00:49:15;;;;;;;16.20;13.05;;;;;;;-145.68;100.00;73391.84;10473402;28;20779;-75
2023/08/22 00:54:15;;;;;;;15.80;12.77;;;;;;;-145.68;100.00;73391.84;10474793;28;20194;-75
2023/08/22 00:59:15;;;;;;;15.77;11.93;;;;;;;-145.68;100.00;73415.84;10491275;28;20233;-74
2023/08/22 01:04:16;;;;;;;15.50;12.60;;;;;;;-145.68;100.00;73425.84;10474054;28;20195;-75
2023/08/22 01:09:35;;;;;;;14.82;12.65;;;;;;;-145.68;100.00;73419.84;10491897;28;20183;-74
2023/08/22 01:14:41;;;;;;;14.95;11.48;;;;;;;-145.68;100.00;73415.84;10457432;28;20301;-74
2023/08/22 01:19:42;;;;;;;18.45;11.75;;;;;;;-145.68;100.00;73399.84;10473493;28;20272;-75
2023/08/22 01:24:43;;;;;;;16.55;11.80;;;;;;;-145.68;100.00;73409.84;10473643;28;20241;-74
2023/08/22 01:29:49;;;;;;;17.33;11.27;;;;;;;-145.68;100.00;73405.84;10491496;28;20231;-74
2023/08/22 01:34:51;;;;;;;15.38;11.68;;;;;;;-145.68;100.00;73409.84;10456806;28;20199;-75
2023/08/22 01:39:55;;;;;;;14.95;10.95;;;;;;;-145.68;100.00;73401.84;10456855;28;20250;-74
2023/08/22 01:44:55;;;;;;;12.85;11.30;;;;;;;-145.68;100.00;73405.84;10473560;28;20633;-75
2023/08/22 01:49:56;;;;;;;12.32;11.10;;;;;;;-145.68;100.00;73411.84;10472829;28;20215;-74
2023/08/22 01:54:57;;;;;;;16.05;11.23;;;;;;;-145.68;100.00;73417.84;10473440;28;20191;-74
2023/08/22 01:59:58;;;;;;;15.57;10.38;;;;;;;-145.68;100.00;73411.84;10459716;28;20219;-74
2023/08/22 02:04:59;;;;;;;15.45;10.70;;;;;;;-145.68;100.00;73397.84;10499279;28;20195;-74
2023/08/22 02:10:00;;;;;;;12.05;10.85;;;;;;;-145.68;100.00;73391.84;10498564;28;20543;-74
2023/08/22 02:15:00;;;;;;;14.77;10.40;;;;;;;-145.68;100.00;73391.84;10480613;28;20195;-76
2023/08/22 02:20:00;;;;;;;14.18;10.57;;;;;;;-145.68;100.00;73393.84;10486828;28;20226;-75
2023/08/22 02:25:02;;;;;;;17.98;10.55;;;;;;;-145.68;100.00;73389.88;10497832;28;20550;-75
2023/08/22 02:30:07;;;;;;;14.88;10.48;;;;;;;-145.68;100.00;73383.88;10496895;28;20200;-75
2023/08/22 02:35:07;;;;;;;14.77;11.10;;;;;;;-145.68;100.00;73379.88;10497776;28;20647;-75
2023/08/22 02:40:11;;;;;;;18.95;11.55;;;;;;;-145.68;100.00;73373.88;10479702;28;20226;-75
2023/08/22 02:45:11;;;;;;;13.77;10.85;;;;;;;-145.68;100.00;73379.88;10479137;28;20231;-75
2023/08/22 02:50:12;;;;;;;13.63;11.65;;;;;;;-145.68;100.00;73389.88;10496973;28;20573;-75
2023/08/22 02:55:12;;;;;;;17.73;11.55;;;;;;;-145.68;100.00;73395.84;10479450;28;20183;-75
2023/08/22 03:00:14;;;;;;;15.88;11.18;;;;;;;-145.68;100.00;73395.84;10478256;28;20574;-75
2023/08/22 03:05:15;;;;;;;15.73;10.18;;;;;;;-145.68;100.00;73399.84;10492404;28;20207;-75
2023/08/22 03:10:17;;;;;;;14.13;10.32;;;;;;;-145.68;100.00;73417.84;10470247;28;20186;-75
2023/08/22 03:15:18;;;;;;;13.98;11.60;;;;;;;-145.68;100.00;73413.84;10471643;28;20248;-75
2023/08/22 03:20:18;;;;;;;14.50;12.18;;;;;;;-145.68;100.00;73447.81;10489228;28;20275;-75
2023/08/22 03:25:18;;;;;;;12.60;11.30;;;;;;;-145.68;100.00;73419.84;10489358;28;20183;-76
2023/08/22 03:30:19;;;;;;;12.10;10.82;;;;;;;-145.68;100.00;73411.84;10471048;28;20179;-75
2023/08/22 03:35:21;;;;;;;14.88;10.80;;;;;;;-145.68;100.00;73397.84;10470636;28;20627;-75
2023/08/22 03:40:22;;;;;;;15.73;10.60;;;;;;;-145.68;100.00;73363.88;10470785;28;20283;-75
2023/08/22 03:45:23;;;;;;;12.82;10.40;;;;;;;-145.68;100.00;73347.88;10469398;28;20741;-75
2023/08/22 03:50:24;;;;;;;12.55;10.23;;;;;;;-145.68;100.00;73335.91;10468695;28;20195;-75
2023/08/22 03:55:24;;;;;;;12.75;9.60;;;;;;;-145.68;100.00;73311.91;10487369;28;20182;-75
2023/08/22 04:00:26;;;;;;;17.83;9.95;;;;;;;-145.68;100.00;73301.91;10469078;28;20272;-75
2023/08/22 04:05:26;;;;;;;12.32;10.32;;;;;;;-145.68;100.00;73255.94;10482537;28;20611;-74
2023/08/22 04:10:26;;;;;;;12.02;10.30;;;;;;;-145.68;100.00;73192.00;10434660;28;20188;-75
2023/08/22 04:15:27;;;;;;;12.15;10.10;;;;;;;-145.68;100.00;73164.00;10452568;28;20191;-75
2023/08/22 04:20:27;;;;;;;17.80;10.60;;;;;;;-145.68;100.00;73118.03;10434366;28;20223;-75
2023/08/22 04:25:28;;;;;;;11.63;9.68;;;;;;;-145.68;100.00;73080.06;10452066;28;20180;-75
2023/08/22 04:30:29;;;;;;;15.32;10.55;;;;;;;-145.68;100.00;73044.09;10467264;28;20194;-75
2023/08/22 04:35:30;;;;;;;14.45;10.05;;;;;;;-145.68;100.00;73020.13;10433857;28;20204;-75
2023/08/22 04:40:30;;;;;;;10.85;9.75;;;;;;;-145.68;100.00;73006.13;10433513;28;20589;-75
2023/08/22 04:45:36;;;;;;;13.02;10.05;;;;;;;-145.68;100.00;72992.13;10466658;28;20263;-75
2023/08/22 04:50:37;;;;;;;13.52;9.52;;;;;;;-145.68;100.00;72992.13;10449457;28;20721;-76
2023/08/22 04:55:38;;;;;;;14.23;9.75;;;;;;;-145.68;100.00;72964.16;10416771;28;20237;-75
2023/08/22 05:00:38;;;;;;;12.70;9.35;;;;;;;-145.68;100.00;72924.19;10432672;28;20219;-75
2023/08/22 05:05:40;;;;;;;10.68;8.70;;;;;;;-145.68;100.00;72904.19;10432705;28;20218;-75
2023/08/22 05:10:41;;;;;;;11.23;8.90;;;;;;;-145.68;98.41;72874.22;10450724;28;20234;-75
2023/08/22 05:15:43;;;;;;;8.48;7.47;;;;;;;-145.68;94.18;72840.25;10432506;28;20664;-75
2023/08/22 05:20:43;;;;;;;9.18;8.25;;;;;;;-145.68;87.93;72780.28;10485273;28;20219;-75
2023/08/22 05:25:44;;;;;;;12.25;8.50;;;;;;;-145.68;86.11;72780.28;10471347;28;20227;-80
2023/08/22 05:30:44;;;;;;;10.23;7.88;;;;;;;-145.68;85.28;72768.31;10486453;28;20585;-75
2023/08/22 05:35:44;;;;;;;12.80;7.40;;;;;;;-145.68;81.59;72724.34;10473137;28;20278;-75
2023/08/22 05:40:46;;;;;;;9.57;7.53;;;;;;;-145.68;78.78;72696.34;10472998;28;20301;-75
2023/08/22 05:45:46;;;;;;;7.75;6.95;;;;;;;-145.68;75.95;72658.38;10473475;28;20238;-75
2023/08/22 05:50:50;;;;;;;7.35;6.40;;;;;;;-145.68;71.83;72586.44;10472572;28;20681;-75
2023/08/22 05:55:51;;;;;;;8.65;7.25;;;;;;;-145.68;68.96;72534.50;10473633;28;20194;-75
2023/08/22 06:00:51;;;;;;;9.68;6.68;;;;;;;-145.68;65.04;72500.53;10472676;28;20575;-74
2023/08/22 06:05:52;;;;;;;9.02;6.28;;;;;;;-145.68;63.22;72486.53;10472838;28;20237;-75
2023/08/22 06:10:52;;;;;;;8.55;5.78;;;;;;;-145.68;60.95;72404.59;10490757;28;20252;-75
2023/08/22 06:15:53;;;;;;;12.55;5.90;;;;;;;-145.68;58.97;72376.63;10490386;28;20206;-75
2023/08/22 06:20:59;;;;;;;8.75;5.90;;;;;;;-145.68;58.23;72404.59;10472613;28;20882;-75
2023/08/22 06:26:00;;;;;;;7.20;5.53;;;;;;;-145.68;57.70;72374.63;10472426;28;20705;-75
2023/08/22 06:31:02;;;;;;;9.15;5.35;;;;;;;-145.68;56.23;72354.66;10472235;28;20191;-75
2023/08/22 06:36:03;;;;;;;6.80;5.25;;;;;;;-145.68;55.17;72302.69;10472485;28;20196;-75
2023/08/22 06:41:09;;;;;;;8.73;5.07;;;;;;;-145.68;54.86;72296.69;10471098;28;20207;-74
2023/08/22 06:46:10;;;;;;;7.07;4.97;;;;;;;-145.68;53.97;72292.72;10477432;28;20668;-74
2023/08/22 06:51:11;;;;;;;8.35;5.22;;;;;;;-145.68;54.56;72300.69;10460826;28;20187;-74
2023/08/22 06:56:11;;;;;;;8.15;5.65;;;;;;;-145.68;54.89;72296.69;10495567;28;20194;-74
2023/08/22 07:01:11;;;;;;;6.97;4.88;;;;;;;-145.68;53.03;72258.75;10505512;28;20218;-74
2023/08/22 07:06:12;;;;;;;5.97;5.00;;;;;;;-145.68;52.54;72246.75;10535976;28;20199;-75
2023/08/22 07:11:12;;;;;;;6.88;4.63;;;;;;;-145.68;51.47;72188.81;10527581;28;20248;-75
2023/08/22 07:16:12;;;;;;;6.75;4.85;;;;;;;-145.68;50.60;72184.81;10477655;28;20266;-74
2023/08/22 07:21:13;;;;;;;6.45;4.53;;;;;;;-145.68;49.50;72132.84;10495314;28;20241;-75
2023/08/22 07:26:13;;;;;;;6.75;4.80;;;;;;;-145.68;48.86;72072.91;10495504;28;20192;-75
2023/08/22 07:31:14;;;;;;;4.97;4.47;;;;;;;-145.68;47.87;72060.94;10492092;28;20942;-74
2023/08/22 07:36:18;;;;;;;6.40;4.20;;;;;;;-145.68;47.72;72020.97;10536923;28;20220;-74
2023/08/22 07:41:18;;;;;;;5.22;4.50;;;;;;;-145.68;47.37;72016.97;10536895;28;20214;-75
2023/08/22 07:46:19;;;;;;;5.90;4.25;;;;;;;-145.68;46.94;72000.97;10505999;28;20231;-75
2023/08/22 07:51:19;;;;;;;4.90;4.40;;;;;;;-145.68;45.86;72050.94;10492499;28;20180;-74
2023/08/22 07:56:20;;;;;;;8.43;4.45;;;;;;;-145.68;45.68;72032.94;10491248;28;20193;-75
2023/08/22 08:01:20;;;;;;;6.97;4.38;;;;;;;-145.68;45.38;72002.97;10473909;28;20276;-75
2023/08/22 08:06:21;;;;;;;7.45;4.72;;;;;;;-145.68;46.03;72012.97;10529061;28;20268;-75
2023/08/22 08:11:21;;;;;;;5.80;4.45;;;;;;;-145.68;45.84;71971.00;10533441;28;20582;-75
2023/08/22 08:16:22;;;;;;;7.90;4.80;;;;;;;-145.68;44.79;71965.00;10494040;28;20270;-75
2023/08/22 08:21:23;;;;;;;5.38;4.78;;;;;;;-145.68;45.33;71925.06;10489967;28;20211;-75
2023/08/22 08:26:23;;;;;;;7.53;4.90;;;;;;;-145.68;45.52;71989.00;10492251;28;20179;-75
2023/08/22 08:31:24;;;;;;;10.57;5.10;;;;;;;-145.68;44.97;71895.09;10490072;28;20180;-75
2023/08/22 08:36:24;;;;;;;8.05;4.95;;;;;;;-145.68;44.14;71781.19;10491410;28;20258;-77
2023/08/22 08:41:25;;;;;;;7.22;4.45;;;;;;;-145.68;44.49;71879.09;10491018;28;20270;-75
2023/08/22 08:46:29;;;;;;;11.02;4.70;;;;;;;-145.68;43.88;71869.13;10532502;28;20238;-75
2023/08/22 08:51:29;;;;;;;5.22;4.72;;;;;;;-145.68;44.53;71835.16;10514295;28;20190;-76
2023/08/22 08:56:29;;;;;;;6.28;4.82;;;;;;;-145.68;44.42;71913.06;10514373;28;20685;-75
2023/08/22 09:01:30;;;;;;;5.95;4.40;;;;;;;-145.68;44.54;71885.09;10501961;28;20210;-76
2023/08/22 09:06:30;;;;;;;6.28;4.82;;;;;;;-145.68;44.19;71865.13;10471956;28;20239;-74
2023/08/22 09:11:31;;;;;;;7.75;4.22;;;;;;;-145.68;44.64;71965.00;10489772;28;20655;-75
2023/08/22 09:16:31;;;;;;;5.78;4.07;;;;;;;-145.68;44.17;71801.19;10473355;28;20198;-74
2023/08/22 09:21:32;;;;;;;6.28;3.60;;;;;;;-145.68;42.85;71745.25;10489981;28;20246;-75
2023/08/22 09:26:32;;;;;;;5.03;3.92;;;;;;;-145.68;42.09;71737.25;10471103;28;20186;-76
2023/08/22 09:31:36;;;;;;;4.93;3.80;;;;;;;-145.68;44.08;71897.09;10489668;28;20187;-75
2023/08/22 09:36:44;;;;;;;5.28;3.35;;;;;;;-145.68;41.12;71741.25;10489324;28;20639;-76
2023/08/22 09:41:45;;;;;;;7.45;3.53;;;;;;;-145.68;41.56;71697.28;10519177;28;20214;-75
2023/08/22 09:46:48;;;;;;;3.80;3.40;;;;;;;-145.68;40.22;71559.44;10512883;28;20291;-75
2023/08/22 09:51:53;;;;;;;7.40;3.70;;;;;;;-145.68;39.94;71485.53;10512994;28;20221;-75
2023/08/22 09:56:55;;;;;;;6.60;3.63;;;;;;;-145.68;37.58;71365.66;10530229;28;20278;-75
2023/08/22 10:02:39;;;;;;;4.82;3.40;;;;;;;-145.68;38.45;71417.59;10510291;28;20254;-75
2023/08/22 10:07:39;;;;;;;5.30;3.20;;;;;;;-145.68;37.95;71407.59;10486666;28;20190;-75
2023/08/22 10:12:40;;;;;;;3.22;2.95;;;;;;;-145.68;36.01;71177.88;10486111;28;20249;-74
2023/08/22 10:17:41;;;;;;;4.63;2.97;;;;;;;-145.68;36.63;71387.63;10486947;28;20320;-76
2023/08/22 10:22:41;;;;;;;4.05;3.40;;;;;;;-145.68;37.21;71371.66;10494270;28;20183;-75
2023/08/22 10:27:46;;;;;;;4.47;2.88;;;;;;;-145.68;35.71;71217.81;10495881;28;20190;-76
2023/08/22 10:33:13;;;;;;;4.35;2.70;;;;;;;-145.68;36.18;71403.63;10496187;28;20187;-75
2023/08/22 10:38:18;;;;;;;4.50;2.70;;;;;;;-145.68;37.77;71581.41;10472555;28;20227;-75
2023/08/22 10:43:19;;;;;;;5.45;2.60;;;;;;;-145.68;38.12;71633.34;10495869;28;20195;-75
2023/08/22 10:48:21;;;;;;;4.13;3.20;;;;;;;-145.68;39.16;71693.28;10494424;28;20635;-75
2023/08/22 10:53:26;;;;;;;4.95;2.65;;;;;;;-145.68;39.90;71793.19;10495458;28;20240;-75
2023/08/22 10:58:36;;;;;;;5.05;2.60;;;;;;;-145.68;38.09;71557.44;10496559;28;20207;-75
2023/08/22 11:03:37;;;;;;;4.72;2.33;;;;;;;-145.68;36.03;71339.69;10496420;28;20187;-75
2023/08/22 11:08:38;;;;;;;6.10;2.40;;;;;;;-145.68;38.15;71655.34;10496160;28;20184;-74
2023/08/22 11:13:40;;;;;;;3.75;2.00;;;;;;;-145.68;36.31;71423.59;10496097;28;20240;-76
2023/08/22 11:18:41;;;;;;;3.70;2.20;;;;;;;-145.68;33.16;71217.81;10495229;28;20226;-75
2023/08/22 11:23:42;;;;;;;5.78;1.90;;;;;;;-145.68;35.71;71479.53;10495816;28;20188;-75
2023/08/22 11:28:43;;;;;;;6.13;2.55;;;;;;;-145.68;37.66;71605.38;10477938;28;20211;-75
2023/08/22 11:33:46;;;;;;;6.15;3.40;;;;;;;-145.68;36.51;71275.75;10494365;28;20186;-75
2023/08/22 11:38:47;;;;;;;6.45;3.22;;;;;;;-145.68;36.55;71241.78;10476849;28;20227;-76
2023/08/22 11:43:50;;;;;;;3.70;3.00;;;;;;;-145.68;34.75;71169.88;10494606;28;20186;-76
2023/08/22 11:48:51;;;;;;;9.25;3.42;;;;;;;-145.68;34.61;71080.00;10494444;28;20234;-76
2023/08/22 11:53:52;;;;;;;6.05;3.42;;;;;;;-145.68;35.83;71243.78;10476557;28;20186;-75
2023/08/22 11:58:52;;;;;;;6.05;3.58;;;;;;;-145.68;38.01;71463.53;10493414;28;20215;-74
2023/08/22 12:03:59;;;;;;;4.72;3.38;;;;;;;-145.68;39.18;71485.53;10490063;28;20621;-75
2023/08/22 12:09:00;;;;;;;7.93;3.53;;;;;;;-145.68;38.27;71341.69;10503122;28;20179;-76
2023/08/22 12:14:10;;;;;;;5.20;3.72;;;;;;;-145.68;37.90;71411.59;10533881;28;20201;-76
2023/08/22 12:19:11;;;;;;;9.57;3.90;;;;;;;-145.68;38.47;71453.56;10532584;28;20219;-75
2023/08/22 12:24:11;;;;;;;9.18;3.40;;;;;;;-145.68;38.76;71439.56;10533029;28;20524;-75
2023/08/22 12:29:12;;;;;;;5.30;3.45;;;;;;;-145.68;38.40;71367.66;10514455;28;20195;-75
2023/08/22 12:34:13;;;;;;;3.97;2.90;;;;;;;-145.68;35.60;71125.94;10505224;28;20251;-75
2023/08/22 12:39:13;;;;;;;7.63;3.08;;;;;;;-145.68;34.97;71062.00;10498354;28;20584;-76
2023/08/22 12:44:14;;;;;;;8.60;3.13;;;;;;;-145.68;34.15;71002.09;10489531;28;20190;-76
2023/08/22 12:49:14;;;;;;;4.18;2.67;;;;;;;-145.68;36.98;71267.75;10500390;28;20286;-75
2023/08/22 12:54:15;;;;;;;9.97;3.70;;;;;;;-145.68;37.82;71363.66;10520724;28;20182;-74
2023/08/22 12:59:15;;;;;;;9.77;3.38;;;;;;;-145.68;38.78;71419.59;10530577;28;20848;-74
2023/08/22 13:04:15;;;;;;;5.95;3.50;;;;;;;-145.68;38.48;71481.53;10492914;28;20210;-74
2023/08/22 13:09:16;;;;;;;4.20;3.20;;;;;;;-145.68;37.53;71341.69;10489099;28;20183;-73
2023/08/22 13:14:16;;;;;;;7.00;2.97;;;;;;;-145.68;36.10;71163.88;10486504;28;20244;-76
2023/08/22 13:19:17;;;;;;;5.90;3.00;;;;;;;-145.68;36.24;71203.84;10487109;28;20499;-75
2023/08/22 13:24:17;;;;;;;4.72;3.15;;;;;;;-145.68;37.02;71251.78;10500491;28;20436;-75
2023/08/22 13:29:17;;;;;;;7.30;3.60;;;;;;;-145.68;35.14;71095.97;10509304;28;20674;-76
2023/08/22 13:34:18;;;;;;;6.07;3.53;;;;;;;-145.68;35.21;71189.84;10488093;28;20191;-76
2023/08/22 13:39:18;;;;;;;5.15;3.55;;;;;;;-145.68;36.08;71305.72;10487741;28;20918;-77
2023/08/22 13:44:19;;;;;;;7.67;3.40;;;;;;;-145.68;37.51;71457.56;10471902;28;20637;-81
2023/08/22 13:49:19;;;;;;;5.40;3.50;;;;;;;-145.68;36.40;71257.78;10477271;28;20520;-80
2023/08/22 13:54:22;;;;;;;4.68;3.33;;;;;;;-145.68;35.89;71285.75;10468580;28;20183;-80
2023/08/22 13:59:22;;;;;;;7.03;3.15;;;;;;;-145.68;37.64;71401.63;10504697;28;20179;-80
2023/08/22 14:04:23;;;;;;;5.07;3.03;;;;;;;-145.68;36.57;71223.81;10507059;28;20203;-81
2023/08/22 14:09:23;;;;;;;4.18;2.95;;;;;;;-145.68;35.52;71159.91;10491883;28;20215;-80
2023/08/22 14:14:24;;;;;;;7.78;3.30;;;;;;;-145.68;35.12;71181.88;10495573;28;20198;-80
2023/08/22 14:19:24;;;;;;;7.18;3.15;;;;;;;-145.68;36.03;71261.78;10496037;28;20202;-81
2023/08/22 14:24:25;;;;;;;6.18;3.38;;;;;;;-145.68;35.70;71239.81;10495731;28;20183;-80
2023/08/22 14:29:25;;;;;;;4.75;3.38;;;;;;;-145.68;36.65;71333.69;10494029;28;20961;-80
2023/08/22 14:34:26;;;;;;;4.30;3.00;;;;;;;-145.68;37.81;71373.66;10485715;28;20190;-81
2023/08/22 14:39:26;;;;;;;5.68;3.40;;;;;;;-145.68;37.40;71299.72;10499077;28;20248;-80
2023/08/22 14:44:27;;;;;;;4.47;3.10;;;;;;;-145.68;34.28;71046.03;10478364;28;20190;-82
2023/08/22 14:49:44;;;;;;;5.22;3.50;;;;;;;-145.68;35.07;71185.88;10478755;28;20324;-83
2023/08/22 14:54:45;;;;;;;6.88;3.45;;;;;;;-145.68;35.93;71365.66;10478515;28;20194;-80
2023/08/22 14:59:45;;;;;;;5.57;3.17;;;;;;;-145.68;35.14;71257.78;10495393;28;20186;-80
2023/08/22 15:04:45;;;;;;;3.70;2.70;;;;;;;-145.68;33.73;70994.09;10537942;28;20247;-80
2023/08/22 15:09:46;;;;;;;9.80;3.92;;;;;;;-145.68;33.76;71032.03;10535996;28;20252;-80
2023/08/22 15:14:46;;;;;;;6.85;3.47;;;;;;;-145.68;33.77;71058.00;10536964;28;20202;-80
2023/08/22 15:19:47;;;;;;;9.50;3.92;;;;;;;-145.68;38.86;71601.41;10536781;28;20906;-80
2023/08/22 15:24:48;;;;;;;10.27;3.97;;;;;;;-145.68;40.01;71681.31;10518643;28;20448;-78
2023/08/22 15:29:49;;;;;;;6.18;3.45;;;;;;;-145.68;39.40;71669.31;10536330;28;20210;-79
2023/08/22 15:34:49;;;;;;;6.63;4.00;;;;;;;-145.68;39.54;71633.34;10521203;28;20188;-78
2023/08/22 15:39:49;;;;;;;10.15;3.95;;;;;;;-145.68;39.89;71691.28;10535827;28;20532;-78
2023/08/22 15:44:51;;;;;;;7.10;4.20;;;;;;;-145.68;40.42;71707.28;10535537;28;20278;-79
2023/08/22 15:49:52;;;;;;;6.07;4.20;;;;;;;-145.68;41.10;71787.19;10535187;28;20225;-80
2023/08/22 15:54:52;;;;;;;6.15;4.22;;;;;;;-145.68;42.98;71967.00;10535639;28;20197;-80
2023/08/22 15:59:53;;;;;;;13.70;4.30;;;;;;;-145.68;43.85;71998.97;10526903;28;20179;-79
2023/08/22 16:04:55;;;;;;;10.75;4.97;;;;;;;-145.68;44.37;72022.97;10533985;28;20213;-80
2023/08/22 16:09:55;;;;;;;12.55;4.97;;;;;;;-145.68;46.66;72118.88;10499542;28;20242;-78
2023/08/22 16:14:55;;;;;;;9.63;4.95;;;;;;;-145.68;46.27;72120.88;10494910;28;20193;-78
2023/08/22 16:19:56;;;;;;;10.43;5.07;;;;;;;-145.68;45.24;72140.84;10507116;28;20188;-79
2023/08/22 16:24:56;;;;;;;6.65;4.32;;;;;;;-145.68;45.66;72124.88;10459859;28;20206;-79
2023/08/22 16:29:57;;;;;;;6.78;4.65;;;;;;;-145.68;46.92;72184.81;10458969;28;20265;-80
2023/08/22 16:34:57;;;;;;;10.73;5.07;;;;;;;-145.68;48.89;72254.75;10478381;28;20576;-78
2023/08/22 16:39:58;;;;;;;6.32;4.22;;;;;;;-145.68;47.86;72228.75;10477311;28;20184;-79
2023/08/22 16:44:58;;;;;;;8.05;4.20;;;;;;;-145.68;47.50;72264.72;10492885;28;20230;-80
2023/08/22 16:49:59;;;;;;;6.35;4.82;;;;;;;-145.68;48.80;72320.69;10492346;28;20221;-80
2023/08/22 16:54:59;;;;;;;8.75;4.90;;;;;;;-145.68;49.00;72332.66;10474998;28;20202;-80
2023/08/22 17:00:00;;;;;;;6.45;4.55;;;;;;;-145.68;49.39;72342.66;10492636;28;20183;-81
2023/08/22 17:05:01;;;;;;;12.15;4.78;;;;;;;-145.68;49.55;72368.63;10492658;28;20206;-80
2023/08/22 17:10:01;;;;;;;9.98;4.40;;;;;;;-145.68;49.56;72384.63;10492398;28;20219;-80
2023/08/22 17:15:02;;;;;;;8.52;4.25;;;;;;;-145.68;49.79;72394.63;10492103;28;20198;-80
2023/08/22 17:20:04;;;;;;;8.23;3.95;;;;;;;-145.68;49.32;72398.63;10491714;28;20183;-80
2023/08/22 17:25:06;;;;;;;8.57;4.70;;;;;;;-145.68;49.16;72410.59;10488645;28;20635;-80
2023/08/22 17:30:07;;;;;;;7.18;4.70;;;;;;;-145.68;49.98;72430.59;10479900;28;20681;-80
2023/08/22 17:35:08;;;;;;;5.78;4.20;;;;;;;-145.68;49.91;72428.59;10482074;28;20199;-80
2023/08/22 17:40:09;;;;;;;6.65;4.22;;;;;;;-145.68;50.69;72440.56;10481119;28;20187;-80
2023/08/22 17:45:09;;;;;;;9.77;4.60;;;;;;;-145.68;51.06;72450.56;10481462;28;20223;-80
2023/08/22 17:50:10;;;;;;;9.50;4.47;;;;;;;-145.68;51.65;72456.56;10481085;28;20218;-80
2023/08/22 17:55:11;;;;;;;6.50;4.80;;;;;;;-145.68;52.69;72488.53;10476403;28;20611;-81
2023/08/22 18:00:13;;;;;;;9.68;5.30;;;;;;;-145.68;53.09;72484.53;10471521;28;20183;-81
2023/08/22 18:05:13;;;;;;;10.63;5.72;;;;;;;-145.68;54.38;72514.50;10478302;28;20744;-81
2023/08/22 18:10:13;;;;;;;8.90;5.55;;;;;;;-145.68;55.01;72520.50;10485538;28;20219;-81
2023/08/22 18:15:14;;;;;;;10.07;5.78;;;;;;;-145.68;56.17;72542.50;10490665;28;20553;-82
2023/08/22 18:20:14;;;;;;;7.22;5.22;;;;;;;-145.68;56.50;72542.50;10484877;28;20179;-80
2023/08/22 18:25:15;;;;;;;8.50;5.35;;;;;;;-145.68;56.92;72528.50;10472309;28;20191;-82
2023/08/22 18:30:15;;;;;;;10.32;5.32;;;;;;;-145.68;57.69;72556.47;10483104;28;20219;-82
2023/08/22 18:35:16;;;;;;;11.48;6.15;;;;;;;-145.68;58.45;72570.47;10480040;28;20194;-81
2023/08/22 18:40:17;;;;;;;10.35;6.10;;;;;;;-145.68;60.14;72608.44;10474042;28;20210;-81
2023/08/22 18:45:18;;;;;;;12.70;6.35;;;;;;;-145.68;61.87;72628.41;10478197;28;20241;-80
2023/08/22 18:50:18;;;;;;;14.45;6.30;;;;;;;-145.68;62.57;72642.41;10467506;28;20327;-81
2023/08/22 18:55:19;;;;;;;8.48;6.35;;;;;;;-145.68;63.59;72652.41;10458300;28;20320;-81
2023/08/22 19:00:20;;;;;;;7.75;5.85;;;;;;;-145.68;63.90;72644.41;10474225;28;20201;-81
2023/08/22 19:05:21;;;;;;;10.68;6.40;;;;;;;-145.68;64.22;72648.41;10477979;28;20191;-82
2023/08/22 19:10:21;;;;;;;11.18;6.55;;;;;;;-145.68;65.29;72672.38;10495686;28;20237;-81
2023/08/22 19:15:22;;;;;;;9.32;6.40;;;;;;;-145.68;66.78;72698.34;10495943;28;20191;-81
2023/08/22 19:20:23;;;;;;;7.72;6.63;;;;;;;-145.68;66.28;72696.34;10495062;28;20190;-81
2023/08/22 19:25:24;;;;;;;7.90;6.40;;;;;;;-145.68;66.89;72704.34;10495665;28;20679;-81
2023/08/22 19:30:25;;;;;;;9.27;6.13;;;;;;;-145.68;67.41;72696.34;10494736;28;20305;-81
2023/08/22 19:35:28;;;;;;;10.70;6.47;;;;;;;-145.68;67.74;72714.34;10494947;28;20206;-80
2023/08/22 19:40:28;;;;;;;10.07;6.63;;;;;;;-145.68;68.37;72724.34;10494524;28;20214;-81
2023/08/22 19:45:29;;;;;;;16.33;6.28;;;;;;;-145.68;67.21;72720.34;10494335;28;20725;-81
2023/08/22 19:50:31;;;;;;;7.38;5.88;;;;;;;-145.68;69.06;72760.31;10476236;28;20230;-80
2023/08/22 19:55:31;;;;;;;11.32;6.30;;;;;;;-145.68;69.86;72790.28;10493228;28;20207;-80
2023/08/22 20:00:32;;;;;;;7.22;6.22;;;;;;;-145.68;69.60;72776.28;10493780;28;20274;-80
2023/08/22 20:05:32;;;;;;;11.13;6.70;;;;;;;-145.68;71.30;72784.28;10475350;28;20213;-80
2023/08/22 20:10:33;;;;;;;13.85;6.68;;;;;;;-145.68;73.48;72826.25;10458599;28;20215;-79
2023/08/22 20:15:33;;;;;;;9.27;6.00;;;;;;;-145.68;73.83;72828.25;10454348;28;20193;-79
2023/08/22 20:20:34;;;;;;;10.68;6.53;;;;;;;-145.68;75.00;72832.25;10463624;28;20242;-79
2023/08/22 20:25:36;;;;;;;8.90;6.88;;;;;;;-145.68;75.88;72846.25;10481183;28;20269;-79
2023/08/22 20:30:36;;;;;;;11.75;6.75;;;;;;;-145.68;75.44;72852.25;10467437;28;20211;-79
2023/08/22 20:35:37;;;;;;;8.23;6.80;;;;;;;-145.68;79.16;72882.22;10473391;28;20198;-80
2023/08/22 20:40:39;;;;;;;9.30;6.55;;;;;;;-145.68;79.65;72886.22;10490603;28;20195;-79
2023/08/22 20:45:39;;;;;;;8.48;6.40;;;;;;;-145.68;78.54;72892.22;10487886;28;20231;-78
2023/08/22 20:50:40;;;;;;;13.82;6.78;;;;;;;-145.68;80.51;72912.19;10490575;28;20223;-79
2023/08/22 20:55:40;;;;;;;12.93;6.78;;;;;;;-145.68;81.68;72914.19;10492964;28;20194;-79
2023/08/22 21:00:41;;;;;;;9.77;7.45;;;;;;;-145.68;80.66;72912.19;10474654;28;20244;-79
2023/08/22 21:05:41;;;;;;;8.90;6.65;;;;;;;-145.68;83.30;72936.19;10491275;28;20206;-79
2023/08/22 21:10:42;;;;;;;9.38;7.40;;;;;;;-145.68;83.49;72938.16;10474522;28;20211;-79
2023/08/22 21:15:43;;;;;;;12.55;7.68;;;;;;;-145.68;84.58;72960.16;10491886;28;20293;-79
2023/08/22 21:20:43;;;;;;;14.95;7.32;;;;;;;-145.68;86.34;72956.16;10492338;28;20179;-79
2023/08/22 21:25:43;;;;;;;9.68;6.78;;;;;;;-145.68;88.08;72968.16;10491927;28;20298;-79
2023/08/22 21:30:46;;;;;;;9.57;7.13;;;;;;;-145.68;89.31;72962.16;10491960;28;20218;-79
2023/08/22 21:35:46;;;;;;;12.70;8.32;;;;;;;-145.68;91.46;73012.13;10473879;28;20724;-79
2023/08/22 21:40:47;;;;;;;12.55;7.55;;;;;;;-145.68;93.72;73018.13;10491171;28;20183;-79
2023/08/22 21:45:47;;;;;;;12.98;7.22;;;;;;;-145.68;92.71;73026.09;10491407;28;20262;-79
2023/08/22 21:50:48;;;;;;;9.50;7.13;;;;;;;-145.68;91.75;73004.13;10490980;28;20215;-79
2023/08/22 21:55:48;;;;;;;8.82;7.30;;;;;;;-145.68;93.84;73012.13;10491778;28;20205;-80
2023/08/22 22:00:49;;;;;;;13.00;7.47;;;;;;;-145.68;99.01;73060.09;10490931;28;20183;-79
2023/08/22 22:05:49;;;;;;;10.10;6.90;;;;;;;-145.68;97.95;73080.06;10456451;28;20187;-79
2023/08/22 22:10:51;;;;;;;10.95;6.22;;;;;;;-145.68;100.00;73094.06;10491289;28;20207;-79
2023/08/22 22:15:54;;;;;;;13.63;7.47;;;;;;;-145.68;100.00;73076.06;10492727;28;20183;-78
2023/08/22 22:20:56;;;;;;;11.52;6.97;;;;;;;-145.68;100.00;73052.09;10498885;28;20187;-79
2023/08/22 22:26:07;;;;;;;10.23;8.38;;;;;;;-145.68;100.00;73110.06;10498708;28;20199;-78
2023/08/22 22:31:12;;;;;;;11.73;7.35;;;;;;;-145.68;100.00;73134.03;10498584;28;20682;-78
2023/08/22 22:36:12;;;;;;;12.82;7.05;;;;;;;-145.68;100.00;73120.03;10480261;28;20191;-79